sensor_id;sensor_type;location;lat;lon;timestamp;P1;durP1;ratioP1;P2;durP2;ratioP2
70457;SDS011;57919;56.194;95.716;2024-03-08T00:08:12;120.27;;;42.87;;
70457;SDS011;57919;56.194;95.716;2024-03-08T00:18:14;107.27;;;36.27;;
70457;SDS011;57919;56.194;95.716;2024-03-08T00:28:16;44.05;;;15.02;;
70457;SDS011;57919;56.194;95.716;2024-03-08T00:38:20;23.57;;;8.43;;
70457;SDS011;57919;56.194;95.716;2024-03-08T00:48:22;43.57;;;14.57;;
70457;SDS011;57919;56.194;95.716;2024-03-08T00:58:24;62.47;;;23.42;;
70457;SDS011;57919;56.194;95.716;2024-03-08T01:08:26;49.53;;;21.23;;
70457;SDS011;57919;56.194;95.716;2024-03-08T01:18:29;64.27;;;24.17;;
70457;SDS011;57919;56.194;95.716;2024-03-08T01:28:30;76.20;;;30.85;;
70457;SDS011;57919;56.194;95.716;2024-03-08T01:38:32;109.63;;;40.20;;
70457;SDS011;57919;56.194;95.716;2024-03-08T01:48:37;149.00;;;46.23;;
70457;SDS011;57919;56.194;95.716;2024-03-08T01:58:43;75.23;;;32.20;;
70457;SDS011;57919;56.194;95.716;2024-03-08T02:08:45;65.13;;;25.50;;
70457;SDS011;57919;56.194;95.716;2024-03-08T02:18:48;68.90;;;27.93;;
70457;SDS011;57919;56.194;95.716;2024-03-08T02:28:50;93.00;;;32.73;;
70457;SDS011;57919;56.194;95.716;2024-03-08T02:38:52;46.25;;;19.15;;
70457;SDS011;57919;56.194;95.716;2024-03-08T02:48:54;130.77;;;46.90;;
70457;SDS011;57919;56.194;95.716;2024-03-08T02:58:56;94.80;;;28.40;;
70457;SDS011;57919;56.194;95.716;2024-03-08T03:08:58;43.45;;;16.05;;
70457;SDS011;57919;56.194;95.716;2024-03-08T03:19:00;60.13;;;19.33;;
70457;SDS011;57919;56.194;95.716;2024-03-08T03:29:05;100.97;;;29.50;;
70457;SDS011;57919;56.194;95.716;2024-03-08T03:39:10;105.47;;;37.40;;
70457;SDS011;57919;56.194;95.716;2024-03-08T03:49:14;86.40;;;30.55;;
70457;SDS011;57919;56.194;95.716;2024-03-08T03:59:15;91.17;;;35.07;;
70457;SDS011;57919;56.194;95.716;2024-03-08T04:09:18;88.60;;;30.00;;
70457;SDS011;57919;56.194;95.716;2024-03-08T04:19:20;91.05;;;31.73;;
70457;SDS011;57919;56.194;95.716;2024-03-08T04:29:22;67.47;;;23.27;;
70457;SDS011;57919;56.194;95.716;2024-03-08T04:39:24;62.27;;;22.37;;
70457;SDS011;57919;56.194;95.716;2024-03-08T04:49:29;41.80;;;15.80;;
70457;SDS011;57919;56.194;95.716;2024-03-08T04:59:31;36.00;;;13.47;;
70457;SDS011;57919;56.194;95.716;2024-03-08T05:09:32;211.20;;;65.47;;
70457;SDS011;57919;56.194;95.716;2024-03-08T05:19:35;30.17;;;9.50;;
70457;SDS011;57919;56.194;95.716;2024-03-08T05:29:40;20.45;;;6.30;;
70457;SDS011;57919;56.194;95.716;2024-03-08T05:39:42;49.47;;;29.40;;
70457;SDS011;57919;56.194;95.716;2024-03-08T05:49:45;30.50;;;11.23;;
70457;SDS011;57919;56.194;95.716;2024-03-08T05:59:47;10.73;;;4.80;;
70457;SDS011;57919;56.194;95.716;2024-03-08T06:09:50;57.90;;;15.57;;
70457;SDS011;57919;56.194;95.716;2024-03-08T06:19:51;16.60;;;5.87;;
70457;SDS011;57919;56.194;95.716;2024-03-08T06:29:53;14.43;;;5.07;;
70457;SDS011;57919;56.194;95.716;2024-03-08T06:39:55;16.50;;;6.27;;
70457;SDS011;57919;56.194;95.716;2024-03-08T06:49:57;43.50;;;10.80;;
70457;SDS011;57919;56.194;95.716;2024-03-08T06:59:59;14.93;;;5.13;;
70457;SDS011;57919;56.194;95.716;2024-03-08T07:10:01;11.38;;;4.05;;
70457;SDS011;57919;56.194;95.716;2024-03-08T07:20:05;15.53;;;4.23;;
70457;SDS011;57919;56.194;95.716;2024-03-08T07:30:12;18.43;;;5.07;;
70457;SDS011;57919;56.194;95.716;2024-03-08T07:40:14;17.75;;;6.32;;
70457;SDS011;57919;56.194;95.716;2024-03-08T07:50:17;14.73;;;6.00;;
70457;SDS011;57919;56.194;95.716;2024-03-08T08:00:20;11.20;;;4.50;;
70457;SDS011;57919;56.194;95.716;2024-03-08T08:10:23;23.88;;;10.60;;
70457;SDS011;57919;56.194;95.716;2024-03-08T08:20:26;28.87;;;9.47;;
70457;SDS011;57919;56.194;95.716;2024-03-08T08:30:30;19.27;;;6.87;;
70457;SDS011;57919;56.194;95.716;2024-03-08T08:40:34;13.07;;;5.37;;
70457;SDS011;57919;56.194;95.716;2024-03-08T08:50:37;28.35;;;9.27;;
70457;SDS011;57919;56.194;95.716;2024-03-08T09:00:39;10.37;;;4.17;;
70457;SDS011;57919;56.194;95.716;2024-03-08T09:10:41;11.50;;;4.57;;
70457;SDS011;57919;56.194;95.716;2024-03-08T09:20:44;13.60;;;4.72;;
70457;SDS011;57919;56.194;95.716;2024-03-08T09:30:46;18.33;;;5.77;;
70457;SDS011;57919;56.194;95.716;2024-03-08T09:40:48;14.67;;;4.73;;
70457;SDS011;57919;56.194;95.716;2024-03-08T09:50:50;15.40;;;6.00;;
70457;SDS011;57919;56.194;95.716;2024-03-08T10:00:53;48.33;;;17.50;;
70457;SDS011;57919;56.194;95.716;2024-03-08T10:10:58;113.13;;;40.77;;
70457;SDS011;57919;56.194;95.716;2024-03-08T10:21:06;46.03;;;16.20;;
70457;SDS011;57919;56.194;95.716;2024-03-08T10:31:11;44.58;;;15.57;;
70457;SDS011;57919;56.194;95.716;2024-03-08T10:41:13;82.10;;;27.67;;
70457;SDS011;57919;56.194;95.716;2024-03-08T10:51:17;78.00;;;23.90;;
70457;SDS011;57919;56.194;95.716;2024-03-08T11:01:21;70.82;;;22.15;;
70457;SDS011;57919;56.194;95.716;2024-03-08T11:11:29;76.73;;;24.97;;
70457;SDS011;57919;56.194;95.716;2024-03-08T11:21:33;87.77;;;35.70;;
70457;SDS011;57919;56.194;95.716;2024-03-08T11:31:35;378.30;;;145.15;;
70457;SDS011;57919;56.194;95.716;2024-03-08T11:41:37;249.23;;;91.63;;
70457;SDS011;57919;56.194;95.716;2024-03-08T11:51:40;66.17;;;30.33;;
70457;SDS011;57919;56.194;95.716;2024-03-08T12:01:43;52.60;;;23.80;;
70457;SDS011;57919;56.194;95.716;2024-03-08T12:11:58;89.75;;;32.63;;
70457;SDS011;57919;56.194;95.716;2024-03-08T12:22:07;88.87;;;36.73;;
70457;SDS011;57919;56.194;95.716;2024-03-08T12:32:11;83.17;;;30.63;;
70457;SDS011;57919;56.194;95.716;2024-03-08T12:42:13;45.78;;;21.88;;
70457;SDS011;57919;56.194;95.716;2024-03-08T12:52:15;84.60;;;33.83;;
70457;SDS011;57919;56.194;95.716;2024-03-08T13:02:19;25.37;;;12.17;;
70457;SDS011;57919;56.194;95.716;2024-03-08T13:12:22;46.03;;;19.75;;
70457;SDS011;57919;56.194;95.716;2024-03-08T13:22:25;81.97;;;30.43;;
70457;SDS011;57919;56.194;95.716;2024-03-08T13:32:27;281.87;;;91.40;;
70457;SDS011;57919;56.194;95.716;2024-03-08T13:42:28;303.87;;;102.77;;
70457;SDS011;57919;56.194;95.716;2024-03-08T13:52:30;69.88;;;23.65;;
70457;SDS011;57919;56.194;95.716;2024-03-08T14:02:33;65.87;;;23.03;;
70457;SDS011;57919;56.194;95.716;2024-03-08T14:12:35;38.23;;;15.20;;
70457;SDS011;57919;56.194;95.716;2024-03-08T14:22:39;157.43;;;56.13;;
70457;SDS011;57919;56.194;95.716;2024-03-08T14:32:41;33.97;;;14.20;;
70457;SDS011;57919;56.194;95.716;2024-03-08T14:42:43;74.80;;;27.43;;
70457;SDS011;57919;56.194;95.716;2024-03-08T14:52:45;33.40;;;13.60;;
70457;SDS011;57919;56.194;95.716;2024-03-08T15:02:49;132.33;;;44.37;;
70457;SDS011;57919;56.194;95.716;2024-03-08T15:12:54;34.97;;;14.57;;
70457;SDS011;57919;56.194;95.716;2024-03-08T15:22:57;93.03;;;32.80;;
70457;SDS011;57919;56.194;95.716;2024-03-08T15:32:59;51.53;;;21.90;;
70457;SDS011;57919;56.194;95.716;2024-03-08T15:43:04;44.37;;;17.33;;
70457;SDS011;57919;56.194;95.716;2024-03-08T15:53:06;53.97;;;22.37;;
70457;SDS011;57919;56.194;95.716;2024-03-08T16:03:08;71.85;;;27.23;;
70457;SDS011;57919;56.194;95.716;2024-03-08T16:13:13;118.03;;;36.67;;
70457;SDS011;57919;56.194;95.716;2024-03-08T16:23:17;145.67;;;50.43;;
70457;SDS011;57919;56.194;95.716;2024-03-08T16:33:19;200.65;;;72.38;;
70457;SDS011;57919;56.194;95.716;2024-03-08T16:43:22;152.00;;;53.00;;
70457;SDS011;57919;56.194;95.716;2024-03-08T16:53:23;144.50;;;48.53;;
70457;SDS011;57919;56.194;95.716;2024-03-08T17:03:25;116.70;;;45.97;;
70457;SDS011;57919;56.194;95.716;2024-03-08T17:13:28;238.82;;;74.10;;
70457;SDS011;57919;56.194;95.716;2024-03-08T17:23:30;359.90;;;110.40;;
70457;SDS011;57919;56.194;95.716;2024-03-08T17:33:33;321.93;;;90.77;;
70457;SDS011;57919;56.194;95.716;2024-03-08T17:43:36;185.95;;;59.58;;
70457;SDS011;57919;56.194;95.716;2024-03-08T17:53:39;206.37;;;64.97;;
70457;SDS011;57919;56.194;95.716;2024-03-08T18:03:41;132.60;;;48.40;;
70457;SDS011;57919;56.194;95.716;2024-03-08T18:13:43;130.80;;;47.35;;
70457;SDS011;57919;56.194;95.716;2024-03-08T18:23:45;115.20;;;40.13;;
70457;SDS011;57919;56.194;95.716;2024-03-08T18:33:47;146.10;;;53.47;;
70457;SDS011;57919;56.194;95.716;2024-03-08T18:43:49;131.73;;;47.90;;
70457;SDS011;57919;56.194;95.716;2024-03-08T18:53:51;132.82;;;45.17;;
70457;SDS011;57919;56.194;95.716;2024-03-08T19:03:53;162.10;;;52.77;;
70457;SDS011;57919;56.194;95.716;2024-03-08T19:13:56;139.47;;;49.73;;
70457;SDS011;57919;56.194;95.716;2024-03-08T19:24:00;105.00;;;42.58;;
70457;SDS011;57919;56.194;95.716;2024-03-08T19:34:03;102.97;;;34.97;;
70457;SDS011;57919;56.194;95.716;2024-03-08T19:44:04;94.37;;;36.47;;
70457;SDS011;57919;56.194;95.716;2024-03-08T19:54:08;82.38;;;32.47;;
70457;SDS011;57919;56.194;95.716;2024-03-08T20:04:10;49.80;;;18.45;;
70457;SDS011;57919;56.194;95.716;2024-03-08T20:14:15;32.33;;;11.93;;
70457;SDS011;57919;56.194;95.716;2024-03-08T20:24:18;41.60;;;16.43;;
70457;SDS011;57919;56.194;95.716;2024-03-08T20:34:20;31.63;;;12.30;;
70457;SDS011;57919;56.194;95.716;2024-03-08T20:44:21;30.00;;;12.10;;
70457;SDS011;57919;56.194;95.716;2024-03-08T20:54:23;33.03;;;12.80;;
70457;SDS011;57919;56.194;95.716;2024-03-08T21:04:25;15.07;;;4.18;;
70457;SDS011;57919;56.194;95.716;2024-03-08T21:14:29;21.13;;;6.50;;
70457;SDS011;57919;56.194;95.716;2024-03-08T21:24:33;22.63;;;8.67;;
70457;SDS011;57919;56.194;95.716;2024-03-08T21:34:38;24.38;;;9.05;;
70457;SDS011;57919;56.194;95.716;2024-03-08T21:44:40;22.57;;;7.10;;
70457;SDS011;57919;56.194;95.716;2024-03-08T21:54:42;32.27;;;13.20;;
70457;SDS011;57919;56.194;95.716;2024-03-08T22:04:44;32.30;;;6.00;;
70457;SDS011;57919;56.194;95.716;2024-03-08T22:14:46;14.68;;;6.70;;
70457;SDS011;57919;56.194;95.716;2024-03-08T22:24:48;18.97;;;7.20;;
70457;SDS011;57919;56.194;95.716;2024-03-08T22:34:55;18.87;;;7.73;;
70457;SDS011;57919;56.194;95.716;2024-03-08T22:44:57;18.73;;;7.15;;
70457;SDS011;57919;56.194;95.716;2024-03-08T22:54:59;14.30;;;4.97;;
70457;SDS011;57919;56.194;95.716;2024-03-08T23:05:01;26.00;;;8.37;;
70457;SDS011;57919;56.194;95.716;2024-03-08T23:15:05;31.13;;;10.32;;
70457;SDS011;57919;56.194;95.716;2024-03-08T23:25:18;39.53;;;11.93;;
70457;SDS011;57919;56.194;95.716;2024-03-08T23:35:21;33.03;;;13.80;;
70457;SDS011;57919;56.194;95.716;2024-03-08T23:45:23;42.50;;;15.13;;
70457;SDS011;57919;56.194;95.716;2024-03-08T23:55:25;44.28;;;15.98;;
